sensor_id;sensor_type;location;lat;lon;timestamp;P1;durP1;ratioP1;P2;durP2;ratioP2
7308;SDS011;3695;53.330;9.876;2022-11-20T00:01:20;15.90;;;11.03;;
7308;SDS011;3695;53.330;9.876;2022-11-20T00:03:48;16.37;;;10.47;;
7308;SDS011;3695;53.330;9.876;2022-11-20T00:06:18;15.90;;;10.30;;
7308;SDS011;3695;53.330;9.876;2022-11-20T00:08:45;15.53;;;10.47;;
7308;SDS011;3695;53.330;9.876;2022-11-20T00:11:13;17.23;;;11.30;;
7308;SDS011;3695;53.330;9.876;2022-11-20T00:13:40;28.93;;;17.27;;
7308;SDS011;3695;53.330;9.876;2022-11-20T00:16:08;27.07;;;14.30;;
7308;SDS011;3695;53.330;9.876;2022-11-20T00:18:36;20.97;;;14.10;;
7308;SDS011;3695;53.330;9.876;2022-11-20T00:21:03;18.80;;;11.33;;
7308;SDS011;3695;53.330;9.876;2022-11-20T00:23:32;18.87;;;10.73;;
7308;SDS011;3695;53.330;9.876;2022-11-20T00:26:01;18.55;;;11.88;;
7308;SDS011;3695;53.330;9.876;2022-11-20T00:28:29;16.93;;;10.93;;
7308;SDS011;3695;53.330;9.876;2022-11-20T00:30:59;19.87;;;10.93;;
7308;SDS011;3695;53.330;9.876;2022-11-20T00:33:27;17.17;;;9.60;;
7308;SDS011;3695;53.330;9.876;2022-11-20T00:35:56;16.60;;;9.80;;
7308;SDS011;3695;53.330;9.876;2022-11-20T00:38:25;14.57;;;9.77;;
7308;SDS011;3695;53.330;9.876;2022-11-20T00:40:55;16.87;;;10.60;;
7308;SDS011;3695;53.330;9.876;2022-11-20T00:43:22;15.13;;;10.30;;
7308;SDS011;3695;53.330;9.876;2022-11-20T00:45:49;15.67;;;10.60;;
7308;SDS011;3695;53.330;9.876;2022-11-20T00:48:15;17.17;;;10.43;;
7308;SDS011;3695;53.330;9.876;2022-11-20T00:50:42;15.83;;;9.93;;
7308;SDS011;3695;53.330;9.876;2022-11-20T00:53:08;15.20;;;9.87;;
7308;SDS011;3695;53.330;9.876;2022-11-20T00:55:35;16.67;;;10.17;;
7308;SDS011;3695;53.330;9.876;2022-11-20T00:58:02;17.17;;;9.77;;
7308;SDS011;3695;53.330;9.876;2022-11-20T01:00:29;13.77;;;9.33;;
7308;SDS011;3695;53.330;9.876;2022-11-20T01:02:55;18.80;;;10.27;;
7308;SDS011;3695;53.330;9.876;2022-11-20T01:05:22;16.07;;;9.50;;
7308;SDS011;3695;53.330;9.876;2022-11-20T01:07:48;15.93;;;9.50;;
7308;SDS011;3695;53.330;9.876;2022-11-20T01:10:15;13.63;;;9.43;;
7308;SDS011;3695;53.330;9.876;2022-11-20T01:12:42;14.17;;;9.57;;
7308;SDS011;3695;53.330;9.876;2022-11-20T01:15:10;16.67;;;9.73;;
7308;SDS011;3695;53.330;9.876;2022-11-20T01:17:36;17.13;;;9.80;;
7308;SDS011;3695;53.330;9.876;2022-11-20T01:20:03;14.40;;;8.87;;
7308;SDS011;3695;53.330;9.876;2022-11-20T01:22:30;14.80;;;9.57;;
7308;SDS011;3695;53.330;9.876;2022-11-20T01:24:56;16.47;;;8.90;;
7308;SDS011;3695;53.330;9.876;2022-11-20T01:27:23;15.63;;;8.57;;
7308;SDS011;3695;53.330;9.876;2022-11-20T01:29:49;14.53;;;9.03;;
7308;SDS011;3695;53.330;9.876;2022-11-20T01:32:17;14.47;;;8.70;;
7308;SDS011;3695;53.330;9.876;2022-11-20T01:34:43;14.40;;;8.57;;
7308;SDS011;3695;53.330;9.876;2022-11-20T01:37:10;13.40;;;8.73;;
7308;SDS011;3695;53.330;9.876;2022-11-20T01:39:37;15.47;;;8.33;;
7308;SDS011;3695;53.330;9.876;2022-11-20T01:42:03;12.40;;;8.63;;
7308;SDS011;3695;53.330;9.876;2022-11-20T01:44:49;13.90;;;8.43;;
7308;SDS011;3695;53.330;9.876;2022-11-20T01:47:21;12.23;;;8.17;;
7308;SDS011;3695;53.330;9.876;2022-11-20T01:50:02;13.33;;;8.30;;
7308;SDS011;3695;53.330;9.876;2022-11-20T01:52:33;13.80;;;8.30;;
7308;SDS011;3695;53.330;9.876;2022-11-20T01:55:04;13.17;;;8.17;;
7308;SDS011;3695;53.330;9.876;2022-11-20T01:57:33;11.30;;;8.33;;
7308;SDS011;3695;53.330;9.876;2022-11-20T02:00:03;13.77;;;8.90;;
7308;SDS011;3695;53.330;9.876;2022-11-20T02:02:33;15.87;;;9.53;;
7308;SDS011;3695;53.330;9.876;2022-11-20T02:05:00;14.93;;;9.17;;
7308;SDS011;3695;53.330;9.876;2022-11-20T02:07:35;13.80;;;9.10;;
7308;SDS011;3695;53.330;9.876;2022-11-20T02:10:02;12.87;;;8.57;;
7308;SDS011;3695;53.330;9.876;2022-11-20T02:12:29;12.27;;;8.43;;
7308;SDS011;3695;53.330;9.876;2022-11-20T02:15:14;12.83;;;8.33;;
7308;SDS011;3695;53.330;9.876;2022-11-20T02:17:41;11.97;;;7.80;;
7308;SDS011;3695;53.330;9.876;2022-11-20T02:20:08;16.47;;;9.20;;
7308;SDS011;3695;53.330;9.876;2022-11-20T02:22:36;13.40;;;9.13;;
7308;SDS011;3695;53.330;9.876;2022-11-20T02:25:09;13.60;;;8.83;;
7308;SDS011;3695;53.330;9.876;2022-11-20T02:27:36;13.07;;;8.63;;
7308;SDS011;3695;53.330;9.876;2022-11-20T02:30:03;13.73;;;8.80;;
7308;SDS011;3695;53.330;9.876;2022-11-20T02:32:33;14.37;;;8.33;;
7308;SDS011;3695;53.330;9.876;2022-11-20T02:35:06;14.17;;;8.93;;
7308;SDS011;3695;53.330;9.876;2022-11-20T02:37:34;13.00;;;8.00;;
7308;SDS011;3695;53.330;9.876;2022-11-20T02:40:03;12.80;;;8.03;;
7308;SDS011;3695;53.330;9.876;2022-11-20T02:42:32;11.20;;;8.27;;
7308;SDS011;3695;53.330;9.876;2022-11-20T02:44:58;13.50;;;8.63;;
7308;SDS011;3695;53.330;9.876;2022-11-20T02:47:25;11.07;;;8.10;;
7308;SDS011;3695;53.330;9.876;2022-11-20T02:49:52;14.53;;;9.07;;
7308;SDS011;3695;53.330;9.876;2022-11-20T02:52:19;16.23;;;8.90;;
7308;SDS011;3695;53.330;9.876;2022-11-20T02:54:45;13.90;;;8.83;;
7308;SDS011;3695;53.330;9.876;2022-11-20T02:57:12;12.00;;;8.23;;
7308;SDS011;3695;53.330;9.876;2022-11-20T02:59:39;13.10;;;7.87;;
7308;SDS011;3695;53.330;9.876;2022-11-20T03:02:06;13.27;;;8.37;;
7308;SDS011;3695;53.330;9.876;2022-11-20T03:04:33;13.67;;;8.60;;
7308;SDS011;3695;53.330;9.876;2022-11-20T03:06:59;14.10;;;8.43;;
7308;SDS011;3695;53.330;9.876;2022-11-20T03:09:25;14.50;;;8.60;;
7308;SDS011;3695;53.330;9.876;2022-11-20T03:11:52;12.13;;;7.83;;
7308;SDS011;3695;53.330;9.876;2022-11-20T03:14:18;12.50;;;8.10;;
7308;SDS011;3695;53.330;9.876;2022-11-20T03:16:46;12.60;;;8.70;;
7308;SDS011;3695;53.330;9.876;2022-11-20T03:19:13;16.57;;;7.97;;
7308;SDS011;3695;53.330;9.876;2022-11-20T03:21:39;14.30;;;8.10;;
7308;SDS011;3695;53.330;9.876;2022-11-20T03:24:06;12.97;;;7.97;;
7308;SDS011;3695;53.330;9.876;2022-11-20T03:26:33;11.53;;;8.00;;
7308;SDS011;3695;53.330;9.876;2022-11-20T03:29:00;11.37;;;8.00;;
7308;SDS011;3695;53.330;9.876;2022-11-20T03:31:30;13.70;;;8.73;;
7308;SDS011;3695;53.330;9.876;2022-11-20T03:33:59;13.83;;;8.20;;
7308;SDS011;3695;53.330;9.876;2022-11-20T03:36:26;13.10;;;7.83;;
7308;SDS011;3695;53.330;9.876;2022-11-20T03:38:54;11.13;;;7.60;;
7308;SDS011;3695;53.330;9.876;2022-11-20T03:41:22;12.53;;;8.70;;
7308;SDS011;3695;53.330;9.876;2022-11-20T03:43:50;11.77;;;7.53;;
7308;SDS011;3695;53.330;9.876;2022-11-20T03:46:18;12.07;;;7.63;;
7308;SDS011;3695;53.330;9.876;2022-11-20T03:48:45;12.00;;;8.03;;
7308;SDS011;3695;53.330;9.876;2022-11-20T03:51:15;13.17;;;8.27;;
7308;SDS011;3695;53.330;9.876;2022-11-20T03:53:43;13.23;;;8.80;;
7308;SDS011;3695;53.330;9.876;2022-11-20T03:56:11;13.63;;;8.00;;
7308;SDS011;3695;53.330;9.876;2022-11-20T03:58:40;10.10;;;7.87;;
7308;SDS011;3695;53.330;9.876;2022-11-20T04:01:07;12.93;;;8.27;;
7308;SDS011;3695;53.330;9.876;2022-11-20T04:03:35;13.77;;;9.03;;
7308;SDS011;3695;53.330;9.876;2022-11-20T04:06:02;13.10;;;7.93;;
7308;SDS011;3695;53.330;9.876;2022-11-20T04:08:31;12.90;;;8.20;;
7308;SDS011;3695;53.330;9.876;2022-11-20T04:11:07;12.47;;;8.33;;
7308;SDS011;3695;53.330;9.876;2022-11-20T04:13:34;15.87;;;8.23;;
7308;SDS011;3695;53.330;9.876;2022-11-20T04:16:01;13.00;;;8.27;;
7308;SDS011;3695;53.330;9.876;2022-11-20T04:18:27;17.73;;;8.83;;
7308;SDS011;3695;53.330;9.876;2022-11-20T04:20:55;13.53;;;8.47;;
7308;SDS011;3695;53.330;9.876;2022-11-20T04:23:22;13.80;;;8.40;;
7308;SDS011;3695;53.330;9.876;2022-11-20T04:25:50;13.27;;;8.50;;
7308;SDS011;3695;53.330;9.876;2022-11-20T04:28:16;14.77;;;8.67;;
7308;SDS011;3695;53.330;9.876;2022-11-20T04:30:43;13.47;;;9.20;;
7308;SDS011;3695;53.330;9.876;2022-11-20T04:33:09;14.47;;;9.00;;
7308;SDS011;3695;53.330;9.876;2022-11-20T04:35:36;12.40;;;8.67;;
7308;SDS011;3695;53.330;9.876;2022-11-20T04:38:03;14.90;;;9.60;;
7308;SDS011;3695;53.330;9.876;2022-11-20T04:40:30;17.60;;;9.03;;
7308;SDS011;3695;53.330;9.876;2022-11-20T04:42:58;15.00;;;9.40;;
7308;SDS011;3695;53.330;9.876;2022-11-20T04:45:25;15.13;;;10.00;;
7308;SDS011;3695;53.330;9.876;2022-11-20T04:47:51;13.27;;;9.77;;
7308;SDS011;3695;53.330;9.876;2022-11-20T04:50:18;16.97;;;9.77;;
7308;SDS011;3695;53.330;9.876;2022-11-20T04:52:45;16.20;;;10.63;;
7308;SDS011;3695;53.330;9.876;2022-11-20T04:55:11;16.13;;;10.37;;
7308;SDS011;3695;53.330;9.876;2022-11-20T04:57:38;16.83;;;10.47;;
7308;SDS011;3695;53.330;9.876;2022-11-20T05:00:07;16.47;;;11.20;;
7308;SDS011;3695;53.330;9.876;2022-11-20T05:02:34;17.13;;;11.00;;
7308;SDS011;3695;53.330;9.876;2022-11-20T05:05:00;17.53;;;10.13;;
7308;SDS011;3695;53.330;9.876;2022-11-20T05:07:27;15.17;;;10.53;;
7308;SDS011;3695;53.330;9.876;2022-11-20T05:09:53;17.03;;;10.80;;
7308;SDS011;3695;53.330;9.876;2022-11-20T05:12:20;16.87;;;11.40;;
7308;SDS011;3695;53.330;9.876;2022-11-20T05:14:46;16.93;;;10.37;;
7308;SDS011;3695;53.330;9.876;2022-11-20T05:17:14;19.73;;;12.67;;
7308;SDS011;3695;53.330;9.876;2022-11-20T05:19:40;19.07;;;11.90;;
7308;SDS011;3695;53.330;9.876;2022-11-20T05:22:07;20.87;;;11.43;;
7308;SDS011;3695;53.330;9.876;2022-11-20T05:24:33;21.47;;;11.60;;
7308;SDS011;3695;53.330;9.876;2022-11-20T05:26:59;19.03;;;11.63;;
7308;SDS011;3695;53.330;9.876;2022-11-20T05:29:26;19.47;;;12.00;;
7308;SDS011;3695;53.330;9.876;2022-11-20T05:31:52;18.13;;;11.90;;
7308;SDS011;3695;53.330;9.876;2022-11-20T05:34:20;18.00;;;11.40;;
7308;SDS011;3695;53.330;9.876;2022-11-20T05:36:46;18.63;;;11.40;;
7308;SDS011;3695;53.330;9.876;2022-11-20T05:39:13;19.27;;;12.00;;
7308;SDS011;3695;53.330;9.876;2022-11-20T05:41:39;18.53;;;11.47;;
7308;SDS011;3695;53.330;9.876;2022-11-20T05:44:06;22.43;;;13.27;;
7308;SDS011;3695;53.330;9.876;2022-11-20T05:46:32;23.70;;;13.27;;
7308;SDS011;3695;53.330;9.876;2022-11-20T05:48:59;23.17;;;13.30;;
7308;SDS011;3695;53.330;9.876;2022-11-20T05:51:26;22.03;;;13.77;;
7308;SDS011;3695;53.330;9.876;2022-11-20T05:53:53;23.37;;;14.97;;
7308;SDS011;3695;53.330;9.876;2022-11-20T05:56:20;27.03;;;14.67;;
7308;SDS011;3695;53.330;9.876;2022-11-20T05:58:47;26.77;;;14.97;;
7308;SDS011;3695;53.330;9.876;2022-11-20T06:01:15;35.93;;;17.57;;
7308;SDS011;3695;53.330;9.876;2022-11-20T06:03:43;29.03;;;16.87;;
7308;SDS011;3695;53.330;9.876;2022-11-20T06:06:12;31.27;;;18.47;;
7308;SDS011;3695;53.330;9.876;2022-11-20T06:08:41;28.03;;;16.37;;
7308;SDS011;3695;53.330;9.876;2022-11-20T06:11:08;26.10;;;15.47;;
7308;SDS011;3695;53.330;9.876;2022-11-20T06:13:35;27.70;;;15.60;;
7308;SDS011;3695;53.330;9.876;2022-11-20T06:16:02;27.83;;;15.87;;
7308;SDS011;3695;53.330;9.876;2022-11-20T06:18:29;31.20;;;16.47;;
7308;SDS011;3695;53.330;9.876;2022-11-20T06:21:00;30.57;;;16.83;;
7308;SDS011;3695;53.330;9.876;2022-11-20T06:23:28;30.67;;;17.80;;
7308;SDS011;3695;53.330;9.876;2022-11-20T06:25:57;25.63;;;15.67;;
7308;SDS011;3695;53.330;9.876;2022-11-20T06:28:24;31.20;;;17.27;;
7308;SDS011;3695;53.330;9.876;2022-11-20T06:30:50;33.87;;;17.57;;
7308;SDS011;3695;53.330;9.876;2022-11-20T06:33:17;33.23;;;17.33;;
7308;SDS011;3695;53.330;9.876;2022-11-20T06:35:43;28.70;;;16.60;;
7308;SDS011;3695;53.330;9.876;2022-11-20T06:38:10;33.47;;;18.13;;
7308;SDS011;3695;53.330;9.876;2022-11-20T06:40:39;33.27;;;17.93;;
7308;SDS011;3695;53.330;9.876;2022-11-20T06:43:07;29.83;;;18.47;;
7308;SDS011;3695;53.330;9.876;2022-11-20T06:45:33;29.20;;;17.33;;
7308;SDS011;3695;53.330;9.876;2022-11-20T06:48:00;33.97;;;17.57;;
7308;SDS011;3695;53.330;9.876;2022-11-20T06:50:26;28.73;;;16.73;;
7308;SDS011;3695;53.330;9.876;2022-11-20T06:52:53;34.33;;;17.90;;
7308;SDS011;3695;53.330;9.876;2022-11-20T06:55:19;32.87;;;18.27;;
7308;SDS011;3695;53.330;9.876;2022-11-20T06:57:45;44.13;;;22.47;;
7308;SDS011;3695;53.330;9.876;2022-11-20T07:00:14;32.53;;;18.33;;
7308;SDS011;3695;53.330;9.876;2022-11-20T07:02:40;35.80;;;18.57;;
7308;SDS011;3695;53.330;9.876;2022-11-20T07:05:07;34.43;;;19.30;;
7308;SDS011;3695;53.330;9.876;2022-11-20T07:07:33;29.53;;;18.20;;
7308;SDS011;3695;53.330;9.876;2022-11-20T07:10:00;33.40;;;18.07;;
7308;SDS011;3695;53.330;9.876;2022-11-20T07:12:26;30.70;;;18.63;;
7308;SDS011;3695;53.330;9.876;2022-11-20T07:14:53;31.97;;;19.50;;
7308;SDS011;3695;53.330;9.876;2022-11-20T07:17:21;30.03;;;18.50;;
7308;SDS011;3695;53.330;9.876;2022-11-20T07:19:47;32.07;;;19.70;;
7308;SDS011;3695;53.330;9.876;2022-11-20T07:22:14;29.87;;;19.57;;
7308;SDS011;3695;53.330;9.876;2022-11-20T07:24:40;33.57;;;19.37;;
7308;SDS011;3695;53.330;9.876;2022-11-20T07:27:07;31.87;;;18.60;;
7308;SDS011;3695;53.330;9.876;2022-11-20T07:29:33;32.80;;;18.27;;
7308;SDS011;3695;53.330;9.876;2022-11-20T07:31:59;32.83;;;20.07;;
7308;SDS011;3695;53.330;9.876;2022-11-20T07:34:27;31.60;;;18.90;;
7308;SDS011;3695;53.330;9.876;2022-11-20T07:36:54;32.07;;;19.40;;
7308;SDS011;3695;53.330;9.876;2022-11-20T07:39:20;31.50;;;18.60;;
7308;SDS011;3695;53.330;9.876;2022-11-20T07:41:47;31.87;;;19.10;;
7308;SDS011;3695;53.330;9.876;2022-11-20T07:44:13;34.67;;;19.37;;
7308;SDS011;3695;53.330;9.876;2022-11-20T07:46:39;31.80;;;18.33;;
7308;SDS011;3695;53.330;9.876;2022-11-20T07:49:06;29.37;;;18.90;;
7308;SDS011;3695;53.330;9.876;2022-11-20T07:51:34;27.97;;;18.17;;
7308;SDS011;3695;53.330;9.876;2022-11-20T07:54:00;36.07;;;20.00;;
7308;SDS011;3695;53.330;9.876;2022-11-20T07:56:26;34.27;;;21.17;;
7308;SDS011;3695;53.330;9.876;2022-11-20T07:58:53;35.93;;;20.33;;
7308;SDS011;3695;53.330;9.876;2022-11-20T08:01:19;37.03;;;20.77;;
7308;SDS011;3695;53.330;9.876;2022-11-20T08:03:46;30.13;;;18.50;;
7308;SDS011;3695;53.330;9.876;2022-11-20T08:06:12;28.33;;;18.43;;
7308;SDS011;3695;53.330;9.876;2022-11-20T08:08:41;30.93;;;18.77;;
7308;SDS011;3695;53.330;9.876;2022-11-20T08:11:07;33.33;;;19.40;;
7308;SDS011;3695;53.330;9.876;2022-11-20T08:13:51;31.07;;;19.37;;
7308;SDS011;3695;53.330;9.876;2022-11-20T08:16:35;29.90;;;17.87;;
7308;SDS011;3695;53.330;9.876;2022-11-20T08:19:02;27.33;;;17.07;;
7308;SDS011;3695;53.330;9.876;2022-11-20T08:21:29;27.00;;;17.70;;
7308;SDS011;3695;53.330;9.876;2022-11-20T08:23:57;28.53;;;17.43;;
7308;SDS011;3695;53.330;9.876;2022-11-20T08:26:24;31.47;;;17.97;;
7308;SDS011;3695;53.330;9.876;2022-11-20T08:28:52;28.23;;;17.37;;
7308;SDS011;3695;53.330;9.876;2022-11-20T08:31:20;28.10;;;18.03;;
7308;SDS011;3695;53.330;9.876;2022-11-20T08:33:46;31.30;;;19.10;;
7308;SDS011;3695;53.330;9.876;2022-11-20T08:36:13;30.60;;;17.67;;
7308;SDS011;3695;53.330;9.876;2022-11-20T08:38:39;33.17;;;19.23;;
7308;SDS011;3695;53.330;9.876;2022-11-20T08:41:07;30.33;;;19.60;;
7308;SDS011;3695;53.330;9.876;2022-11-20T08:43:53;31.90;;;19.60;;
7308;SDS011;3695;53.330;9.876;2022-11-20T08:46:22;31.93;;;20.07;;
7308;SDS011;3695;53.330;9.876;2022-11-20T08:48:49;33.47;;;18.57;;
7308;SDS011;3695;53.330;9.876;2022-11-20T08:51:16;32.27;;;18.87;;
7308;SDS011;3695;53.330;9.876;2022-11-20T08:53:43;29.57;;;18.90;;
7308;SDS011;3695;53.330;9.876;2022-11-20T08:56:11;31.67;;;19.93;;
7308;SDS011;3695;53.330;9.876;2022-11-20T08:58:37;36.67;;;21.37;;
7308;SDS011;3695;53.330;9.876;2022-11-20T09:01:04;33.23;;;20.13;;
7308;SDS011;3695;53.330;9.876;2022-11-20T09:03:31;32.30;;;19.50;;
7308;SDS011;3695;53.330;9.876;2022-11-20T09:05:58;37.40;;;20.40;;
7308;SDS011;3695;53.330;9.876;2022-11-20T09:08:25;29.70;;;17.97;;
7308;SDS011;3695;53.330;9.876;2022-11-20T09:10:51;33.33;;;18.67;;
7308;SDS011;3695;53.330;9.876;2022-11-20T09:13:19;30.53;;;18.10;;
7308;SDS011;3695;53.330;9.876;2022-11-20T09:15:46;31.47;;;18.37;;
7308;SDS011;3695;53.330;9.876;2022-11-20T09:18:12;28.33;;;18.33;;
7308;SDS011;3695;53.330;9.876;2022-11-20T09:20:39;23.13;;;15.67;;
7308;SDS011;3695;53.330;9.876;2022-11-20T09:23:05;23.33;;;16.03;;
7308;SDS011;3695;53.330;9.876;2022-11-20T09:25:32;25.80;;;15.37;;
7308;SDS011;3695;53.330;9.876;2022-11-20T09:27:59;25.17;;;15.37;;
7308;SDS011;3695;53.330;9.876;2022-11-20T09:30:27;76.13;;;42.90;;
7308;SDS011;3695;53.330;9.876;2022-11-20T09:32:53;51.00;;;29.23;;
7308;SDS011;3695;53.330;9.876;2022-11-20T09:35:20;21.67;;;15.00;;
7308;SDS011;3695;53.330;9.876;2022-11-20T09:37:46;23.83;;;15.23;;
7308;SDS011;3695;53.330;9.876;2022-11-20T09:40:17;22.60;;;14.30;;
7308;SDS011;3695;53.330;9.876;2022-11-20T09:42:47;20.27;;;13.47;;
7308;SDS011;3695;53.330;9.876;2022-11-20T09:45:23;20.10;;;14.07;;
7308;SDS011;3695;53.330;9.876;2022-11-20T09:48:08;20.63;;;13.47;;
7308;SDS011;3695;53.330;9.876;2022-11-20T09:50:43;20.47;;;12.27;;
7308;SDS011;3695;53.330;9.876;2022-11-20T09:53:17;16.93;;;10.80;;
7308;SDS011;3695;53.330;9.876;2022-11-20T09:55:50;21.80;;;11.70;;
7308;SDS011;3695;53.330;9.876;2022-11-20T09:58:20;19.67;;;12.73;;
7308;SDS011;3695;53.330;9.876;2022-11-20T10:00:59;20.93;;;13.60;;
7308;SDS011;3695;53.330;9.876;2022-11-20T10:03:37;18.33;;;13.03;;
7308;SDS011;3695;53.330;9.876;2022-11-20T10:06:10;20.83;;;13.50;;
7308;SDS011;3695;53.330;9.876;2022-11-20T10:08:44;17.90;;;12.17;;
7308;SDS011;3695;53.330;9.876;2022-11-20T10:11:17;18.97;;;12.83;;
7308;SDS011;3695;53.330;9.876;2022-11-20T10:13:49;16.40;;;11.07;;
7308;SDS011;3695;53.330;9.876;2022-11-20T10:16:37;30.03;;;17.10;;
7308;SDS011;3695;53.330;9.876;2022-11-20T10:19:14;52.27;;;29.10;;
7308;SDS011;3695;53.330;9.876;2022-11-20T10:21:55;39.53;;;22.10;;
7308;SDS011;3695;53.330;9.876;2022-11-20T10:24:37;51.97;;;27.37;;
7308;SDS011;3695;53.330;9.876;2022-11-20T10:27:17;20.03;;;13.13;;
7308;SDS011;3695;53.330;9.876;2022-11-20T10:29:59;15.03;;;10.70;;
7308;SDS011;3695;53.330;9.876;2022-11-20T10:32:30;17.70;;;11.07;;
7308;SDS011;3695;53.330;9.876;2022-11-20T10:35:03;13.63;;;10.33;;
7308;SDS011;3695;53.330;9.876;2022-11-20T10:37:33;19.83;;;11.83;;
7308;SDS011;3695;53.330;9.876;2022-11-20T10:40:14;17.77;;;11.83;;
7308;SDS011;3695;53.330;9.876;2022-11-20T10:42:47;18.33;;;12.27;;
7308;SDS011;3695;53.330;9.876;2022-11-20T10:45:19;16.30;;;10.27;;
7308;SDS011;3695;53.330;9.876;2022-11-20T10:48:07;14.17;;;9.67;;
7308;SDS011;3695;53.330;9.876;2022-11-20T10:50:40;14.33;;;9.70;;
7308;SDS011;3695;53.330;9.876;2022-11-20T10:53:17;14.30;;;9.83;;
7308;SDS011;3695;53.330;9.876;2022-11-20T10:55:55;13.53;;;9.33;;
7308;SDS011;3695;53.330;9.876;2022-11-20T10:58:28;11.43;;;8.23;;
7308;SDS011;3695;53.330;9.876;2022-11-20T11:01:11;11.47;;;8.23;;
7308;SDS011;3695;53.330;9.876;2022-11-20T11:03:42;10.10;;;7.87;;
7308;SDS011;3695;53.330;9.876;2022-11-20T11:06:10;10.83;;;7.50;;
7308;SDS011;3695;53.330;9.876;2022-11-20T11:08:44;9.03;;;6.77;;
7308;SDS011;3695;53.330;9.876;2022-11-20T11:11:18;12.70;;;6.80;;
7308;SDS011;3695;53.330;9.876;2022-11-20T11:13:48;11.40;;;6.67;;
7308;SDS011;3695;53.330;9.876;2022-11-20T11:16:24;8.30;;;6.93;;
7308;SDS011;3695;53.330;9.876;2022-11-20T11:19:02;7.60;;;6.60;;
7308;SDS011;3695;53.330;9.876;2022-11-20T11:21:30;9.33;;;7.90;;
7308;SDS011;3695;53.330;9.876;2022-11-20T11:23:57;10.23;;;7.23;;
7308;SDS011;3695;53.330;9.876;2022-11-20T11:26:25;8.60;;;6.23;;
7308;SDS011;3695;53.330;9.876;2022-11-20T11:28:53;8.87;;;6.53;;
7308;SDS011;3695;53.330;9.876;2022-11-20T11:31:24;9.00;;;6.70;;
7308;SDS011;3695;53.330;9.876;2022-11-20T11:33:51;113.77;;;59.33;;
7308;SDS011;3695;53.330;9.876;2022-11-20T11:36:29;9.50;;;6.20;;
7308;SDS011;3695;53.330;9.876;2022-11-20T11:38:56;6.97;;;5.60;;
7308;SDS011;3695;53.330;9.876;2022-11-20T11:41:22;7.10;;;5.27;;
7308;SDS011;3695;53.330;9.876;2022-11-20T11:43:53;6.30;;;4.83;;
7308;SDS011;3695;53.330;9.876;2022-11-20T11:46:39;5.97;;;4.80;;
7308;SDS011;3695;53.330;9.876;2022-11-20T11:49:17;6.80;;;4.73;;
7308;SDS011;3695;53.330;9.876;2022-11-20T11:51:51;5.57;;;4.53;;
7308;SDS011;3695;53.330;9.876;2022-11-20T11:54:28;5.07;;;4.57;;
7308;SDS011;3695;53.330;9.876;2022-11-20T11:57:01;7.17;;;4.77;;
7308;SDS011;3695;53.330;9.876;2022-11-20T11:59:46;6.83;;;5.00;;
7308;SDS011;3695;53.330;9.876;2022-11-20T12:02:24;7.07;;;5.47;;
7308;SDS011;3695;53.330;9.876;2022-11-20T12:04:59;9.33;;;6.43;;
7308;SDS011;3695;53.330;9.876;2022-11-20T12:07:34;6.93;;;5.70;;
7308;SDS011;3695;53.330;9.876;2022-11-20T12:10:06;7.43;;;5.47;;
7308;SDS011;3695;53.330;9.876;2022-11-20T12:12:42;7.30;;;5.17;;
7308;SDS011;3695;53.330;9.876;2022-11-20T12:15:12;5.33;;;4.83;;
7308;SDS011;3695;53.330;9.876;2022-11-20T12:17:46;6.23;;;5.20;;
7308;SDS011;3695;53.330;9.876;2022-11-20T12:20:14;8.33;;;5.23;;
7308;SDS011;3695;53.330;9.876;2022-11-20T12:22:42;5.60;;;4.70;;
7308;SDS011;3695;53.330;9.876;2022-11-20T12:25:17;5.93;;;4.90;;
7308;SDS011;3695;53.330;9.876;2022-11-20T12:30:46;6.97;;;4.97;;
7308;SDS011;3695;53.330;9.876;2022-11-20T12:33:24;6.17;;;4.63;;
7308;SDS011;3695;53.330;9.876;2022-11-20T12:36:10;5.57;;;4.30;;
7308;SDS011;3695;53.330;9.876;2022-11-20T12:38:49;4.70;;;3.80;;
7308;SDS011;3695;53.330;9.876;2022-11-20T12:41:27;7.20;;;4.37;;
7308;SDS011;3695;53.330;9.876;2022-11-20T12:44:31;5.77;;;4.30;;
7308;SDS011;3695;53.330;9.876;2022-11-20T12:47:38;5.83;;;4.43;;
7308;SDS011;3695;53.330;9.876;2022-11-20T12:50:19;8.77;;;5.00;;
7308;SDS011;3695;53.330;9.876;2022-11-20T12:52:56;6.33;;;4.53;;
7308;SDS011;3695;53.330;9.876;2022-11-20T12:55:35;6.53;;;4.53;;
7308;SDS011;3695;53.330;9.876;2022-11-20T12:58:10;5.40;;;3.90;;
7308;SDS011;3695;53.330;9.876;2022-11-20T13:00:47;5.47;;;4.57;;
7308;SDS011;3695;53.330;9.876;2022-11-20T13:03:25;5.73;;;4.70;;
7308;SDS011;3695;53.330;9.876;2022-11-20T13:06:05;5.10;;;4.40;;
7308;SDS011;3695;53.330;9.876;2022-11-20T13:08:41;6.10;;;4.37;;
7308;SDS011;3695;53.330;9.876;2022-11-20T13:11:13;6.97;;;4.97;;
7308;SDS011;3695;53.330;9.876;2022-11-20T13:13:52;6.07;;;3.80;;
7308;SDS011;3695;53.330;9.876;2022-11-20T13:16:31;5.57;;;4.50;;
7308;SDS011;3695;53.330;9.876;2022-11-20T13:19:03;90.37;;;41.40;;
7308;SDS011;3695;53.330;9.876;2022-11-20T13:21:37;8.13;;;5.90;;
7308;SDS011;3695;53.330;9.876;2022-11-20T13:24:06;6.70;;;5.57;;
7308;SDS011;3695;53.330;9.876;2022-11-20T13:26:48;7.17;;;4.73;;
7308;SDS011;3695;53.330;9.876;2022-11-20T13:29:25;5.17;;;4.40;;
7308;SDS011;3695;53.330;9.876;2022-11-20T13:32:00;7.17;;;5.00;;
7308;SDS011;3695;53.330;9.876;2022-11-20T13:34:31;6.47;;;4.60;;
7308;SDS011;3695;53.330;9.876;2022-11-20T13:36:58;7.43;;;4.43;;
7308;SDS011;3695;53.330;9.876;2022-11-20T13:39:30;6.00;;;4.43;;
7308;SDS011;3695;53.330;9.876;2022-11-20T13:41:58;16.53;;;11.30;;
7308;SDS011;3695;53.330;9.876;2022-11-20T13:44:29;5.83;;;4.60;;
7308;SDS011;3695;53.330;9.876;2022-11-20T13:46:59;19.03;;;12.47;;
7308;SDS011;3695;53.330;9.876;2022-11-20T13:49:26;10.13;;;7.57;;
7308;SDS011;3695;53.330;9.876;2022-11-20T13:51:58;9.57;;;6.83;;
7308;SDS011;3695;53.330;9.876;2022-11-20T13:54:47;12.73;;;8.17;;
7308;SDS011;3695;53.330;9.876;2022-11-20T14:00:20;6.57;;;5.10;;
7308;SDS011;3695;53.330;9.876;2022-11-20T14:02:51;8.33;;;5.13;;
7308;SDS011;3695;53.330;9.876;2022-11-20T14:05:27;6.70;;;4.60;;
7308;SDS011;3695;53.330;9.876;2022-11-20T14:07:54;5.77;;;4.93;;
7308;SDS011;3695;53.330;9.876;2022-11-20T14:10:24;7.10;;;5.07;;
7308;SDS011;3695;53.330;9.876;2022-11-20T14:12:52;5.83;;;4.80;;
7308;SDS011;3695;53.330;9.876;2022-11-20T14:15:26;4.77;;;4.10;;
7308;SDS011;3695;53.330;9.876;2022-11-20T14:17:54;7.10;;;5.33;;
7308;SDS011;3695;53.330;9.876;2022-11-20T14:20:20;6.60;;;4.97;;
7308;SDS011;3695;53.330;9.876;2022-11-20T14:22:51;5.87;;;5.17;;
7308;SDS011;3695;53.330;9.876;2022-11-20T14:25:20;53.13;;;27.93;;
7308;SDS011;3695;53.330;9.876;2022-11-20T14:27:53;18.73;;;11.90;;
7308;SDS011;3695;53.330;9.876;2022-11-20T14:30:21;13.13;;;9.67;;
7308;SDS011;3695;53.330;9.876;2022-11-20T14:32:49;13.80;;;6.67;;
7308;SDS011;3695;53.330;9.876;2022-11-20T14:35:18;7.20;;;5.07;;
7308;SDS011;3695;53.330;9.876;2022-11-20T14:37:49;5.57;;;4.43;;
7308;SDS011;3695;53.330;9.876;2022-11-20T14:40:26;10.67;;;7.03;;
7308;SDS011;3695;53.330;9.876;2022-11-20T14:42:55;5.80;;;4.50;;
7308;SDS011;3695;53.330;9.876;2022-11-20T14:45:23;6.17;;;4.87;;
7308;SDS011;3695;53.330;9.876;2022-11-20T14:47:52;6.77;;;4.67;;
7308;SDS011;3695;53.330;9.876;2022-11-20T14:50:22;9.17;;;4.17;;
7308;SDS011;3695;53.330;9.876;2022-11-20T14:52:50;7.87;;;4.57;;
7308;SDS011;3695;53.330;9.876;2022-11-20T14:55:24;20.77;;;11.80;;
7308;SDS011;3695;53.330;9.876;2022-11-20T14:57:55;6.37;;;4.63;;
7308;SDS011;3695;53.330;9.876;2022-11-20T15:00:23;5.87;;;5.07;;
7308;SDS011;3695;53.330;9.876;2022-11-20T15:02:50;16.30;;;9.03;;
7308;SDS011;3695;53.330;9.876;2022-11-20T15:05:18;15.70;;;9.43;;
7308;SDS011;3695;53.330;9.876;2022-11-20T15:07:47;8.33;;;5.77;;
7308;SDS011;3695;53.330;9.876;2022-11-20T15:10:19;5.33;;;4.20;;
7308;SDS011;3695;53.330;9.876;2022-11-20T15:12:48;6.83;;;4.80;;
7308;SDS011;3695;53.330;9.876;2022-11-20T15:15:19;5.93;;;4.60;;
7308;SDS011;3695;53.330;9.876;2022-11-20T15:17:49;6.03;;;4.53;;
7308;SDS011;3695;53.330;9.876;2022-11-20T15:20:16;6.00;;;4.73;;